Aérodrome :
LOGIN :

S'inscrire | Disclaimer

   EN    FR    IT 

 










Légende :    VFR   VFR Marginal   IFR   IFR Intensif   IFR Très Intensif
Visi : 
Plafond : 
>= 8 km
>= 3000ft
5 à 8 km
1000 à 3000 ft
1500m à 5 km
500 à 1000 ft
800 à 1500m
200 à 500 ft
< 800m
< 200 ft
Symboles :   Orages  Brouillard  Fortes neiges  Fortes précipitations  Vent > 20 kt
SIGMETs :   Divers  Orages  Givrage  Turbulence  Onde Orograph.  Cendres Volcan.






- Altitude de l'aérodrome : 247 ft
- Code IATA : BLL


EKBI - Billund

DERNIER METAR :
  • 051950Z AUTO 21016KT 180V240 9999 OVC018/// 08/05 Q1004

METARs EXPIRÉS :
  • 051920Z AUTO 21016G26KT 170V230 9999 BKN019/// 08/05 Q1004
  • 051850Z AUTO 21015G26KT 9999 BKN020/// 07/05 Q1005
  • 051820Z AUTO 21016G28KT 190V250 9999 BKN019/// 08/04 Q1006
  • 051750Z AUTO 22017KT 9999 BKN020/// 08/05 Q1006
  • 051720Z AUTO 21013KT 180V240 9999 BKN020/// 07/05 Q1007

TAF TAF EKBI
Valide du 05 à 18h jusqu'au 06 à 18h UTC


051702Z 0518/0618 22015KT 9999 BKN020
TEMPO 0518/0521 23020G30KT
TEMPO 0521/0524 23025G40KT 4000 -RADZ BKN012
TEMPO 0600/0606 23025G40KT 2500 -RADZ BKN008
FM060600 24015KT 1200 -RADZ BR BKN002
TEMPO 0606/0618 6000 NSW BKN008



MET'MAP, la Météo Aéronautique d'un coup d'oeil ! - Copyright ORBIFLY Décembre 2007 - Disclaimer

ORBIFLY MET'MAP TEAM :

Programmation & Développement : Alexandra Zaïnal
Sur une idée originale de : Baudouin d'Aumeries
Assistance à la programmation : Marc-Olivier Méhu
Soutien technique & logistique : Manuel Goepfert

Contact : metmap@orbifly.com




SOURCES & CREDITS :

   NOAA